Time;durP1;ratioP1;P1;durP2;ratioP2;P2;SDS_P1;SDS_P2;PMS_P1;PMS_P2;Temp;Humidity;BMP_temperature;BMP_pressure;BME280_temperature;BME280_humidity;BME280_pressure;Samples;Min_cycle;Max_cycle;Signal;HPM_P1;HPM_P2
2022/10/12 00:00:56;;;;;;;18.50;10.27;;;;;;;;;;4997302;28;94132;-81
2022/10/12 00:03:22;;;;;;;19.33;10.95;;;;;;;;;;4996868;28;92472;-80
2022/10/12 00:05:59;;;;;;;20.50;10.80;;;;;;;;;;4996698;28;93925;-80
2022/10/12 00:08:25;;;;;;;18.17;10.75;;;;;;;;;;4997065;28;94095;-80
2022/10/12 00:10:51;;;;;;;18.77;10.15;;;;;;;;;;4997144;28;92414;-79
2022/10/12 00:13:18;;;;;;;17.63;9.85;;;;;;;;;;4996471;28;93072;-79
2022/10/12 00:15:44;;;;;;;15.32;10.63;;;;;;;;;;4997360;28;93944;-80
2022/10/12 00:18:10;;;;;;;15.68;9.38;;;;;;;;;;4999329;28;92481;-79
2022/10/12 00:20:37;;;;;;;14.60;9.60;;;;;;;;;;4994397;28;96654;-80
2022/10/12 00:23:03;;;;;;;29.88;9.98;;;;;;;;;;5004010;28;92473;-80
2022/10/12 00:25:30;;;;;;;17.25;9.32;;;;;;;;;;4996222;28;94043;-80
2022/10/12 00:27:56;;;;;;;15.63;9.70;;;;;;;;;;4996283;28;94520;-80
2022/10/12 00:30:22;;;;;;;21.70;10.27;;;;;;;;;;4997603;28;92464;-81
2022/10/12 00:32:49;;;;;;;17.98;9.63;;;;;;;;;;4996612;28;93963;-80
2022/10/12 00:35:15;;;;;;;14.27;9.88;;;;;;;;;;4996118;28;94164;-80
2022/10/12 00:37:41;;;;;;;21.90;10.93;;;;;;;;;;4997365;28;91834;-81
2022/10/12 00:40:08;;;;;;;17.80;9.70;;;;;;;;;;5016103;28;92439;-79
2022/10/12 00:42:34;;;;;;;19.70;11.00;;;;;;;;;;5016324;28;92925;-80
2022/10/12 00:45:01;;;;;;;22.85;10.82;;;;;;;;;;5014459;28;94804;-80
2022/10/12 00:47:30;;;;;;;17.73;9.35;;;;;;;;;;5010148;28;94052;-80
2022/10/12 00:50:00;;;;;;;18.63;9.35;;;;;;;;;;4996267;28;92428;-80
2022/10/12 00:52:28;;;;;;;19.60;9.57;;;;;;;;;;4996976;28;93854;-81
2022/10/12 00:54:55;;;;;;;17.15;10.18;;;;;;;;;;4996386;28;93579;-81
2022/10/12 00:57:22;;;;;;;15.60;10.43;;;;;;;;;;4996422;28;92490;-80
2022/10/12 00:59:50;;;;;;;18.10;10.07;;;;;;;;;;4996038;28;94212;-80
2022/10/12 01:02:18;;;;;;;19.55;11.10;;;;;;;;;;4998546;28;92422;-79
2022/10/12 01:04:44;;;;;;;16.17;10.48;;;;;;;;;;4995951;28;93255;-79
2022/10/12 01:07:11;;;;;;;15.85;10.82;;;;;;;;;;4989664;28;94094;-79
2022/10/12 01:09:37;;;;;;;14.82;9.18;;;;;;;;;;4993608;28;95246;-80
2022/10/12 01:12:05;;;;;;;14.82;10.80;;;;;;;;;;4996379;28;96479;-79
2022/10/12 01:14:31;;;;;;;15.40;10.13;;;;;;;;;;4975915;28;94447;-79
2022/10/12 01:17:09;;;;;;;14.75;9.52;;;;;;;;;;4991700;28;92528;-79
2022/10/12 01:19:38;;;;;;;12.35;8.75;;;;;;;;;;4996268;28;94043;-79
2022/10/12 01:22:07;;;;;;;16.45;9.48;;;;;;;;;;4994909;28;94540;-79
2022/10/12 01:24:50;;;;;;;12.02;9.13;;;;;;;;;;4998483;28;93659;-79
2022/10/12 01:27:24;;;;;;;12.20;9.07;;;;;;;;;;4996244;28;93688;-79
2022/10/12 01:29:51;;;;;;;17.10;9.48;;;;;;;;;;5002007;28;92616;-79
2022/10/12 01:32:23;;;;;;;16.08;9.15;;;;;;;;;;5015934;28;94139;-79
2022/10/12 01:34:58;;;;;;;15.52;8.38;;;;;;;;;;5014653;28;96488;-79
2022/10/12 01:37:54;;;;;;;10.30;7.90;;;;;;;;;;5015295;28;92443;-79
2022/10/12 01:40:26;;;;;;;11.07;7.45;;;;;;;;;;4978377;28;93991;-79
2022/10/12 01:42:54;;;;;;;12.95;8.25;;;;;;;;;;5015980;28;94524;-79
2022/10/12 01:45:20;;;;;;;12.95;7.85;;;;;;;;;;5018288;28;92519;-79
2022/10/12 01:47:51;;;;;;;8.65;7.43;;;;;;;;;;5006991;28;94029;-79
2022/10/12 01:50:20;;;;;;;15.43;7.57;;;;;;;;;;4995645;28;92456;-79
2022/10/12 01:53:04;;;;;;;15.68;7.75;;;;;;;;;;4995627;28;93021;-79
2022/10/12 01:55:51;;;;;;;16.02;7.65;;;;;;;;;;4995898;28;94132;-80
2022/10/12 01:58:36;;;;;;;9.32;7.40;;;;;;;;;;4994623;28;92416;-79
2022/10/12 02:01:05;;;;;;;18.48;7.88;;;;;;;;;;4994294;28;94755;-79
2022/10/12 02:03:32;;;;;;;8.63;6.55;;;;;;;;;;4996282;28;94050;-79
2022/10/12 02:06:05;;;;;;;10.77;7.22;;;;;;;;;;4994903;28;92338;-80
2022/10/12 02:08:31;;;;;;;11.80;7.20;;;;;;;;;;4998923;28;93928;-80
2022/10/12 02:11:01;;;;;;;8.88;6.45;;;;;;;;;;4994182;28;93070;-80
2022/10/12 02:13:29;;;;;;;14.88;7.03;;;;;;;;;;4995017;28;94049;-80
2022/10/12 02:15:57;;;;;;;10.52;7.70;;;;;;;;;;4995458;28;94032;-80
2022/10/12 02:18:23;;;;;;;11.73;7.20;;;;;;;;;;4995999;28;91809;-81
2022/10/12 02:20:51;;;;;;;11.45;7.32;;;;;;;;;;4995148;28;92713;-79
2022/10/12 02:23:18;;;;;;;12.48;7.68;;;;;;;;;;4994849;28;94231;-79
2022/10/12 02:25:45;;;;;;;9.25;7.00;;;;;;;;;;4993490;28;95162;-80
2022/10/12 02:28:14;;;;;;;18.55;7.68;;;;;;;;;;4994478;28;96217;-79
2022/10/12 02:31:00;;;;;;;21.02;8.98;;;;;;;;;;4998414;28;93933;-79
2022/10/12 02:33:34;;;;;;;16.45;9.18;;;;;;;;;;4994629;28;94048;-80
2022/10/12 02:36:03;;;;;;;20.67;10.10;;;;;;;;;;4995002;28;94308;-79
2022/10/12 02:38:36;;;;;;;24.98;10.98;;;;;;;;;;4994885;28;92483;-80
2022/10/12 02:41:02;;;;;;;;;;;;;;;;;;4994168;28;93749;-80
2022/10/12 02:43:36;;;;;;;22.58;10.73;;;;;;;;;;4995893;28;122927;-82
2022/10/12 02:46:04;;;;;;;13.20;8.63;;;;;;;;;;4994527;28;92373;-80
2022/10/12 02:48:30;;;;;;;16.17;10.15;;;;;;;;;;4994054;28;94008;-81
2022/10/12 02:50:57;;;;;;;20.35;9.50;;;;;;;;;;4992194;28;96607;-81
2022/10/12 02:53:27;;;;;;;17.40;10.90;;;;;;;;;;4998116;28;92401;-81
2022/10/12 02:55:58;;;;;;;19.77;9.55;;;;;;;;;;5008534;28;94011;-80
2022/10/12 02:58:24;;;;;;;19.25;9.65;;;;;;;;;;5015254;28;92455;-79
2022/10/12 03:00:51;;;;;;;25.50;11.07;;;;;;;;;;5015064;28;93815;-80
2022/10/12 03:03:17;;;;;;;25.33;10.40;;;;;;;;;;5013082;28;94665;-80
2022/10/12 03:05:44;;;;;;;17.20;10.80;;;;;;;;;;5014326;28;92312;-81
2022/10/12 03:08:11;;;;;;;21.25;11.55;;;;;;;;;;5013478;28;93917;-80
2022/10/12 03:10:37;;;;;;;18.67;10.93;;;;;;;;;;5014149;28;94095;-80
2022/10/12 03:13:03;;;;;;;24.88;10.30;;;;;;;;;;5012864;28;92526;-80
2022/10/12 03:15:30;;;;;;;24.80;10.00;;;;;;;;;;5014595;28;94868;-80
2022/10/12 03:17:56;;;;;;;26.88;11.15;;;;;;;;;;5013905;28;92435;-80
2022/10/12 03:20:22;;;;;;;20.17;10.32;;;;;;;;;;4997366;28;93110;-80
2022/10/12 03:22:49;;;;;;;15.90;10.38;;;;;;;;;;4993025;28;94275;-80
2022/10/12 03:25:15;;;;;;;20.60;9.02;;;;;;;;;;4992597;28;92500;-80
2022/10/12 03:27:41;;;;;;;19.40;10.25;;;;;;;;;;4994673;28;93932;-80
2022/10/12 03:30:10;;;;;;;16.67;9.80;;;;;;;;;;5009774;28;94165;-80
2022/10/12 03:32:37;;;;;;;18.00;9.70;;;;;;;;;;5014951;28;92639;-80
2022/10/12 03:35:03;;;;;;;16.40;9.57;;;;;;;;;;5014412;28;92388;-80
2022/10/12 03:37:30;;;;;;;21.90;9.40;;;;;;;;;;5016602;28;94234;-80
2022/10/12 03:39:56;;;;;;;24.65;9.50;;;;;;;;;;5012657;28;95206;-80
2022/10/12 03:42:22;;;;;;;19.63;10.57;;;;;;;;;;5014296;28;94494;-80
2022/10/12 03:44:49;;;;;;;18.23;9.25;;;;;;;;;;5012735;28;92760;-80
2022/10/12 03:47:16;;;;;;;14.10;9.70;;;;;;;;;;5007722;28;93781;-80
2022/10/12 03:49:42;;;;;;;16.15;9.30;;;;;;;;;;4993923;28;94126;-80
2022/10/12 03:52:09;;;;;;;15.98;9.88;;;;;;;;;;4992362;28;92823;-79
2022/10/12 03:54:35;;;;;;;21.25;9.82;;;;;;;;;;4993922;28;93946;-80
2022/10/12 03:57:01;;;;;;;16.85;9.20;;;;;;;;;;4997077;28;93780;-79
2022/10/12 03:59:28;;;;;;;20.42;10.18;;;;;;;;;;4993521;28;93086;-80
2022/10/12 04:01:54;;;;;;;15.10;9.35;;;;;;;;;;4993430;28;93129;-80
2022/10/12 04:04:20;;;;;;;15.25;8.85;;;;;;;;;;4992517;28;94924;-77
2022/10/12 04:06:47;;;;;;;16.60;9.20;;;;;;;;;;4993827;28;96729;-78
2022/10/12 04:09:13;;;;;;;20.67;8.75;;;;;;;;;;4993671;28;94550;-81
2022/10/12 04:11:39;;;;;;;10.77;8.35;;;;;;;;;;4993351;28;92662;-78
2022/10/12 04:14:06;;;;;;;10.57;8.60;;;;;;;;;;4994116;28;93935;-78
2022/10/12 04:16:32;;;;;;;13.35;8.70;;;;;;;;;;4993890;28;93529;-80
2022/10/12 04:18:58;;;;;;;15.70;8.60;;;;;;;;;;4995701;28;92843;-80
2022/10/12 04:21:27;;;;;;;20.27;9.43;;;;;;;;;;4994881;28;93316;-79
2022/10/12 04:23:53;;;;;;;16.17;8.27;;;;;;;;;;4994053;28;92288;-79
2022/10/12 04:26:20;;;;;;;16.70;9.13;;;;;;;;;;4992380;28;92695;-79
2022/10/12 04:28:46;;;;;;;15.38;8.93;;;;;;;;;;4992000;28;96421;-79
2022/10/12 04:31:13;;;;;;;16.90;8.38;;;;;;;;;;4993586;28;92435;-79
2022/10/12 04:33:39;;;;;;;15.95;8.40;;;;;;;;;;4995020;28;93978;-79
2022/10/12 04:36:06;;;;;;;15.63;7.95;;;;;;;;;;4996981;28;94059;-79
2022/10/12 04:38:32;;;;;;;13.10;8.57;;;;;;;;;;4996904;28;92443;-79
2022/10/12 04:40:59;;;;;;;13.13;8.10;;;;;;;;;;4998738;28;94229;-79
2022/10/12 04:43:25;;;;;;;15.15;8.43;;;;;;;;;;4997109;28;92416;-79
2022/10/12 04:45:55;;;;;;;14.77;8.52;;;;;;;;;;4997542;28;93774;-79
2022/10/12 04:48:22;;;;;;;13.63;8.88;;;;;;;;;;4995855;28;94489;-79
2022/10/12 04:50:48;;;;;;;15.35;8.18;;;;;;;;;;4996713;28;92487;-79
2022/10/12 04:53:14;;;;;;;11.80;7.70;;;;;;;;;;4996444;28;95721;-79
2022/10/12 04:55:40;;;;;;;16.17;8.95;;;;;;;;;;5016079;28;94202;-79
2022/10/12 04:58:07;;;;;;;9.95;8.35;;;;;;;;;;5016673;28;92614;-79
2022/10/12 05:00:33;;;;;;;11.68;8.10;;;;;;;;;;5016839;28;93854;-80
2022/10/12 05:02:59;;;;;;;18.13;8.55;;;;;;;;;;5018709;28;93976;-79
2022/10/12 05:05:26;;;;;;;12.32;7.85;;;;;;;;;;5016869;28;93923;-79
2022/10/12 05:07:52;;;;;;;11.70;8.18;;;;;;;;;;5015630;28;94171;-79
2022/10/12 05:10:19;;;;;;;16.27;8.40;;;;;;;;;;5016159;28;91789;-79
2022/10/12 05:12:45;;;;;;;15.10;8.55;;;;;;;;;;5016942;28;92512;-79
2022/10/12 05:15:11;;;;;;;14.63;8.32;;;;;;;;;;5015563;28;94482;-79
2022/10/12 05:17:38;;;;;;;14.25;8.32;;;;;;;;;;5014889;28;94967;-80
2022/10/12 05:20:06;;;;;;;15.10;8.45;;;;;;;;;;5003173;28;96245;-80
2022/10/12 05:22:32;;;;;;;10.10;7.75;;;;;;;;;;4995009;28;94007;-80
2022/10/12 05:24:59;;;;;;;13.50;8.15;;;;;;;;;;4999271;28;92588;-79
2022/10/12 05:27:25;;;;;;;12.73;8.48;;;;;;;;;;4999178;28;94204;-79
2022/10/12 05:29:52;;;;;;;20.73;9.50;;;;;;;;;;5015836;28;92420;-79
2022/10/12 05:32:19;;;;;;;19.08;9.60;;;;;;;;;;5016179;28;94024;-79
2022/10/12 05:34:45;;;;;;;17.92;9.57;;;;;;;;;;5016802;28;93665;-79
2022/10/12 05:37:11;;;;;;;14.50;8.85;;;;;;;;;;5015367;28;92348;-79
2022/10/12 05:39:38;;;;;;;26.83;9.63;;;;;;;;;;5016318;28;93296;-79
2022/10/12 05:42:04;;;;;;;15.88;8.90;;;;;;;;;;5014137;28;95517;-79
2022/10/12 05:44:30;;;;;;;15.32;9.20;;;;;;;;;;5014354;28;92499;-79
2022/10/12 05:46:57;;;;;;;21.50;10.00;;;;;;;;;;5017692;28;94056;-79
2022/10/12 05:49:23;;;;;;;13.05;9.05;;;;;;;;;;4988824;28;93649;-79
2022/10/12 05:51:49;;;;;;;15.90;9.48;;;;;;;;;;4975141;28;94017;-79
2022/10/12 05:54:16;;;;;;;11.38;8.55;;;;;;;;;;4982579;28;94166;-79
2022/10/12 05:56:42;;;;;;;11.23;7.97;;;;;;;;;;4996028;28;92403;-79
2022/10/12 05:59:09;;;;;;;18.58;9.25;;;;;;;;;;4995484;28;93965;-79
2022/10/12 06:01:35;;;;;;;19.00;8.50;;;;;;;;;;4994971;28;94452;-79
2022/10/12 06:04:02;;;;;;;14.77;8.57;;;;;;;;;;4994874;28;92846;-79
2022/10/12 06:06:28;;;;;;;16.65;8.45;;;;;;;;;;4997447;28;94773;-79
2022/10/12 06:08:54;;;;;;;18.63;8.70;;;;;;;;;;4986653;28;92408;-81
2022/10/12 06:11:21;;;;;;;18.05;8.98;;;;;;;;;;4992039;28;94086;-80
2022/10/12 06:13:47;;;;;;;13.10;8.60;;;;;;;;;;4993961;28;94377;-80
2022/10/12 06:16:14;;;;;;;19.17;8.55;;;;;;;;;;4994596;28;92695;-78
2022/10/12 06:18:40;;;;;;;12.98;8.70;;;;;;;;;;4992486;28;93803;-81
2022/10/12 06:21:06;;;;;;;14.10;8.00;;;;;;;;;;4993452;28;94652;-81
2022/10/12 06:23:53;;;;;;;13.48;7.85;;;;;;;;;;4996252;28;91669;-79
2022/10/12 06:26:19;;;;;;;17.95;8.18;;;;;;;;;;4991214;28;93218;-80
2022/10/12 06:28:46;;;;;;;13.60;8.73;;;;;;;;;;4997409;28;93802;-80
2022/10/12 06:31:13;;;;;;;16.63;8.02;;;;;;;;;;4988374;28;95054;-79
2022/10/12 06:33:39;;;;;;;20.15;8.07;;;;;;;;;;4989054;28;94588;-79
2022/10/12 06:36:05;;;;;;;28.35;8.45;;;;;;;;;;4993052;28;92847;-80
2022/10/12 06:38:32;;;;;;;18.65;7.78;;;;;;;;;;4995017;28;93967;-79
2022/10/12 06:40:58;;;;;;;16.17;7.63;;;;;;;;;;4991844;28;94114;-80
2022/10/12 06:43:24;;;;;;;15.48;7.70;;;;;;;;;;4993189;28;92627;-80
2022/10/12 06:45:51;;;;;;;10.73;7.53;;;;;;;;;;4979695;28;93683;-79
2022/10/12 06:48:17;;;;;;;17.85;6.90;;;;;;;;;;4978978;28;92275;-80
2022/10/12 06:50:45;;;;;;;20.45;7.90;;;;;;;;;;4998248;28;92682;-78
2022/10/12 06:53:11;;;;;;;15.00;7.53;;;;;;;;;;4992822;28;94515;-78
2022/10/12 06:55:38;;;;;;;18.45;7.10;;;;;;;;;;4993102;28;94810;-78
2022/10/12 06:58:04;;;;;;;22.67;7.45;;;;;;;;;;4992979;28;96752;-78
2022/10/12 07:00:31;;;;;;;22.33;7.35;;;;;;;;;;4992612;28;94608;-79
2022/10/12 07:02:57;;;;;;;13.55;7.20;;;;;;;;;;4990788;28;92599;-78
2022/10/12 07:05:23;;;;;;;16.65;7.38;;;;;;;;;;4979045;28;93935;-78
2022/10/12 07:07:50;;;;;;;11.48;7.25;;;;;;;;;;4994016;28;94151;-78
2022/10/12 07:10:16;;;;;;;17.83;6.47;;;;;;;;;;4988865;28;93111;-78
2022/10/12 07:12:42;;;;;;;17.40;8.10;;;;;;;;;;4996888;28;93943;-78
2022/10/12 07:15:09;;;;;;;20.50;7.22;;;;;;;;;;4990826;28;92695;-78
2022/10/12 07:17:35;;;;;;;14.43;7.40;;;;;;;;;;4994476;28;93086;-77
2022/10/12 07:20:04;;;;;;;12.23;7.15;;;;;;;;;;4991444;28;96616;-77
2022/10/12 07:22:30;;;;;;;25.55;7.57;;;;;;;;;;4986495;28;94331;-77
2022/10/12 07:24:58;;;;;;;13.73;8.52;;;;;;;;;;4992604;28;92971;-78
2022/10/12 07:27:24;;;;;;;17.05;9.00;;;;;;;;;;4994484;28;93214;-79
2022/10/12 07:29:50;;;;;;;16.75;8.13;;;;;;;;;;4993829;28;92472;-79
2022/10/12 07:32:17;;;;;;;18.00;8.32;;;;;;;;;;4990157;28;93817;-78
2022/10/12 07:34:43;;;;;;;13.75;8.63;;;;;;;;;;4991607;28;94515;-78
2022/10/12 07:37:10;;;;;;;23.75;9.27;;;;;;;;;;4986257;28;93919;-78
2022/10/12 07:39:37;;;;;;;17.45;8.90;;;;;;;;;;4988817;28;94109;-77
2022/10/12 07:42:04;;;;;;;23.73;9.00;;;;;;;;;;4992375;28;92590;-78
2022/10/12 07:44:30;;;;;;;21.08;9.07;;;;;;;;;;4990446;28;94807;-77
2022/10/12 07:46:57;;;;;;;21.55;10.02;;;;;;;;;;4993114;28;94743;-78
2022/10/12 07:49:23;;;;;;;16.65;9.95;;;;;;;;;;4991050;28;92974;-77
2022/10/12 07:51:49;;;;;;;22.85;10.90;;;;;;;;;;4993961;28;93980;-78
2022/10/12 07:54:16;;;;;;;19.38;11.40;;;;;;;;;;4999776;28;96242;-77
2022/10/12 07:56:46;;;;;;;26.10;12.52;;;;;;;;;;4995419;28;92515;-78
2022/10/12 07:59:12;;;;;;;23.63;11.90;;;;;;;;;;4993450;28;93282;-78
2022/10/12 08:01:39;;;;;;;22.27;10.65;;;;;;;;;;4990984;28;92851;-77
2022/10/12 08:04:05;;;;;;;23.45;11.75;;;;;;;;;;4997298;28;92883;-77
2022/10/12 08:06:32;;;;;;;22.60;11.85;;;;;;;;;;4993294;28;94151;-78
2022/10/12 08:08:59;;;;;;;19.58;11.20;;;;;;;;;;4990239;28;94935;-77
2022/10/12 08:11:26;;;;;;;24.88;11.20;;;;;;;;;;4992425;28;96281;-77
2022/10/12 08:13:53;;;;;;;21.40;11.38;;;;;;;;;;5000673;28;94189;-78
2022/10/12 08:16:19;;;;;;;21.38;10.93;;;;;;;;;;5009592;28;92508;-78
2022/10/12 08:18:46;;;;;;;23.63;10.88;;;;;;;;;;4993693;28;94276;-78
2022/10/12 08:21:13;;;;;;;26.00;11.25;;;;;;;;;;4995400;28;92499;-77
2022/10/12 08:23:40;;;;;;;19.80;10.70;;;;;;;;;;4994437;28;94020;-78
2022/10/12 08:26:06;;;;;;;18.20;10.18;;;;;;;;;;5003458;28;93470;-77
2022/10/12 08:28:34;;;;;;;26.52;11.75;;;;;;;;;;5000268;28;92434;-77
2022/10/12 08:31:04;;;;;;;23.02;11.13;;;;;;;;;;4994423;28;93795;-77
2022/10/12 08:33:30;;;;;;;25.00;10.68;;;;;;;;;;4990591;28;96919;-79
2022/10/12 08:36:01;;;;;;;19.00;10.73;;;;;;;;;;4990729;28;92560;-78
2022/10/12 08:38:27;;;;;;;25.67;11.55;;;;;;;;;;4990307;28;94119;-77
2022/10/12 08:41:16;;;;;;;18.48;10.95;;;;;;;;;;4992442;28;92587;-77
2022/10/12 08:43:45;;;;;;;27.02;11.65;;;;;;;;;;4996331;28;93219;-77
2022/10/12 08:46:11;;;;;;;26.25;10.55;;;;;;;;;;4994148;28;94110;-78
2022/10/12 08:49:04;;;;;;;17.48;11.18;;;;;;;;;;4993750;28;93700;-77
2022/10/12 08:51:34;;;;;;;25.42;10.60;;;;;;;;;;4998259;28;93109;-77
2022/10/12 08:54:07;;;;;;;17.10;10.40;;;;;;;;;;5014955;28;95400;-77
2022/10/12 08:56:34;;;;;;;15.10;8.73;;;;;;;;;;4986150;28;95058;-83
2022/10/12 08:59:01;;;;;;;20.58;10.32;;;;;;;;;;4995143;28;95269;-80
2022/10/12 09:01:35;;;;;;;26.70;10.65;;;;;;;;;;4993489;28;94712;-76
2022/10/12 09:04:02;;;;;;;22.10;11.35;;;;;;;;;;4992141;28;94365;-77
2022/10/12 09:06:32;;;;;;;25.60;10.85;;;;;;;;;;4993146;28;94103;-77
2022/10/12 09:09:03;;;;;;;26.63;11.15;;;;;;;;;;4994014;28;92594;-77
2022/10/12 09:11:33;;;;;;;21.70;11.67;;;;;;;;;;4991070;28;94345;-77
2022/10/12 09:14:19;;;;;;;24.98;10.32;;;;;;;;;;4992933;28;94931;-77
2022/10/12 09:16:47;;;;;;;20.65;9.88;;;;;;;;;;4994631;28;93075;-78
2022/10/12 09:19:13;;;;;;;18.05;10.10;;;;;;;;;;4991649;28;93399;-76
2022/10/12 09:21:41;;;;;;;29.15;9.95;;;;;;;;;;4991262;28;93328;-76
2022/10/12 09:24:12;;;;;;;24.27;10.15;;;;;;;;;;4997253;28;94894;-78
2022/10/12 09:26:38;;;;;;;21.25;11.43;;;;;;;;;;4992763;28;92924;-76
2022/10/12 09:29:14;;;;;;;20.63;9.85;;;;;;;;;;4992872;28;92520;-76
2022/10/12 09:31:56;;;;;;;19.48;9.15;;;;;;;;;;4994277;28;93954;-79
2022/10/12 09:34:22;;;;;;;18.73;10.00;;;;;;;;;;4993564;28;93382;-76
2022/10/12 09:36:48;;;;;;;28.23;11.98;;;;;;;;;;4992837;28;92579;-79
2022/10/12 09:39:19;;;;;;;19.05;9.77;;;;;;;;;;4995377;28;93261;-78
2022/10/12 09:41:47;;;;;;;22.48;10.20;;;;;;;;;;4993919;28;92437;-78
2022/10/12 09:44:24;;;;;;;16.35;9.65;;;;;;;;;;4992398;28;92512;-78
2022/10/12 09:46:56;;;;;;;23.35;11.20;;;;;;;;;;5011750;28;93236;-78
2022/10/12 09:49:37;;;;;;;20.20;9.32;;;;;;;;;;4994674;28;94961;-79
2022/10/12 09:52:04;;;;;;;17.77;9.98;;;;;;;;;;4993372;28;96838;-77
2022/10/12 09:54:31;;;;;;;25.17;10.40;;;;;;;;;;4995225;28;94220;-77
2022/10/12 09:56:57;;;;;;;23.02;9.90;;;;;;;;;;4983690;28;92456;-77
2022/10/12 09:59:38;;;;;;;19.88;9.95;;;;;;;;;;4994125;28;94229;-78
2022/10/12 10:02:10;;;;;;;21.63;9.32;;;;;;;;;;4993715;28;94245;-77
2022/10/12 10:04:37;;;;;;;18.63;9.15;;;;;;;;;;4997009;28;92955;-76
2022/10/12 10:07:12;;;;;;;31.45;11.07;;;;;;;;;;4995733;28;92915;-76
2022/10/12 10:09:40;;;;;;;26.35;9.77;;;;;;;;;;4990423;28;93907;-76
2022/10/12 10:12:35;;;;;;;18.48;9.65;;;;;;;;;;5000949;28;94040;-76
2022/10/12 10:15:02;;;;;;;19.70;10.07;;;;;;;;;;4980854;28;96686;-76
2022/10/12 10:17:30;;;;;;;18.67;8.77;;;;;;;;;;4988546;28;92930;-77
2022/10/12 10:19:57;;;;;;;18.42;9.38;;;;;;;;;;4991003;28;92643;-77
2022/10/12 10:22:24;;;;;;;25.13;10.18;;;;;;;;;;4991651;28;93948;-76
2022/10/12 10:24:52;;;;;;;15.43;8.70;;;;;;;;;;4992086;28;93989;-88
2022/10/12 10:27:36;;;;;;;18.50;8.73;;;;;;;;;;4979612;28;94288;-78
2022/10/12 10:30:07;;;;;;;19.02;8.55;;;;;;;;;;4992971;28;94219;-77
2022/10/12 10:33:06;;;;;;;20.35;9.05;;;;;;;;;;4992079;28;94298;-78
2022/10/12 10:35:32;;;;;;;17.15;9.32;;;;;;;;;;4994681;28;94247;-77
2022/10/12 10:37:59;;;;;;;24.98;10.07;;;;;;;;;;4993280;28;93674;-77
2022/10/12 10:40:27;;;;;;;17.65;9.00;;;;;;;;;;4992525;28;94795;-77
2022/10/12 10:42:58;;;;;;;27.85;8.55;;;;;;;;;;4995056;28;94201;-76
2022/10/12 10:45:26;;;;;;;18.55;8.43;;;;;;;;;;4991932;28;92897;-76
2022/10/12 10:48:00;;;;;;;17.05;8.13;;;;;;;;;;4990145;28;94252;-77
2022/10/12 10:50:31;;;;;;;19.42;8.57;;;;;;;;;;4990220;28;94926;-77
2022/10/12 10:52:58;;;;;;;20.98;8.07;;;;;;;;;;4996810;28;92398;-76
2022/10/12 10:55:43;;;;;;;20.42;7.68;;;;;;;;;;4994811;28;94200;-77
2022/10/12 10:58:18;;;;;;;15.57;7.28;;;;;;;;;;4995442;28;91641;-77
2022/10/12 11:00:46;;;;;;;22.30;7.60;;;;;;;;;;4994429;28;93088;-76
2022/10/12 11:03:19;;;;;;;9.98;5.55;;;;;;;;;;4994646;28;93982;-77
2022/10/12 11:06:09;;;;;;;15.35;5.97;;;;;;;;;;4993405;28;95562;-77
2022/10/12 11:08:37;;;;;;;11.77;6.18;;;;;;;;;;4992116;28;96929;-77
2022/10/12 11:11:19;;;;;;;14.77;5.72;;;;;;;;;;4994630;28;94303;-77
2022/10/12 11:13:54;;;;;;;22.15;6.40;;;;;;;;;;4994246;28;92760;-76
2022/10/12 11:16:35;;;;;;;13.68;5.88;;;;;;;;;;4997799;28;94055;-77
2022/10/12 11:19:21;;;;;;;14.35;6.35;;;;;;;;;;4994457;28;92433;-76
2022/10/12 11:21:56;;;;;;;16.13;5.90;;;;;;;;;;4993955;28;93997;-76
2022/10/12 11:24:28;;;;;;;16.67;6.15;;;;;;;;;;4995139;28;93567;-76
2022/10/12 11:27:03;;;;;;;21.23;6.47;;;;;;;;;;5011634;28;92493;-75
2022/10/12 11:29:30;;;;;;;15.68;7.65;;;;;;;;;;5013369;28;94823;-76
2022/10/12 11:32:12;;;;;;;11.90;6.28;;;;;;;;;;5011879;28;96604;-75
2022/10/12 11:34:52;;;;;;;19.58;6.45;;;;;;;;;;5013990;28;92413;-78
2022/10/12 11:37:21;;;;;;;13.07;6.63;;;;;;;;;;4992242;28;95386;-77
2022/10/12 11:39:52;;;;;;;21.23;6.88;;;;;;;;;;4993055;28;94061;-78
2022/10/12 11:42:27;;;;;;;13.18;6.15;;;;;;;;;;4992381;28;93342;-77
2022/10/12 11:44:55;;;;;;;9.27;5.10;;;;;;;;;;4991808;28;94834;-77
2022/10/12 11:47:24;;;;;;;13.13;5.70;;;;;;;;;;4992233;28;93413;-76
2022/10/12 11:49:55;;;;;;;21.20;5.97;;;;;;;;;;4993671;28;94575;-76
2022/10/12 11:52:23;;;;;;;20.05;7.28;;;;;;;;;;4994994;28;96202;-77
2022/10/12 11:55:00;;;;;;;16.73;6.32;;;;;;;;;;4994829;28;92757;-76
2022/10/12 11:57:29;;;;;;;16.27;5.25;;;;;;;;;;4984733;28;94906;-76
2022/10/12 11:59:58;;;;;;;12.48;5.32;;;;;;;;;;4994392;28;94093;-77
2022/10/12 12:02:37;;;;;;;15.68;5.57;;;;;;;;;;4999475;28;92656;-77
2022/10/12 12:05:04;;;;;;;17.67;5.55;;;;;;;;;;4993819;28;94548;-75
2022/10/12 12:07:36;;;;;;;12.57;4.88;;;;;;;;;;4996392;28;93143;-75
2022/10/12 12:10:21;;;;;;;12.07;4.78;;;;;;;;;;4987321;28;93960;-76
2022/10/12 12:13:10;;;;;;;9.10;4.70;;;;;;;;;;4995005;28;94070;-76
2022/10/12 12:15:37;;;;;;;12.43;4.78;;;;;;;;;;4993335;28;92380;-75
2022/10/12 12:18:09;;;;;;;12.07;4.75;;;;;;;;;;4996285;28;93169;-76
2022/10/12 12:20:41;;;;;;;19.55;5.03;;;;;;;;;;4993980;28;94953;-76
2022/10/12 12:23:09;;;;;;;;;;;;;;;;;;4993980;28;95596;-77
2022/10/12 12:25:36;;;;;;;14.18;3.90;;;;;;;;;;4995003;28;112982;-77
2022/10/12 12:28:17;;;;;;;17.52;5.07;;;;;;;;;;4994976;28;92577;-76
2022/10/12 12:30:54;;;;;;;14.15;4.53;;;;;;;;;;4996242;28;94219;-77
2022/10/12 12:33:26;;;;;;;13.55;5.63;;;;;;;;;;4996092;28;94169;-77
2022/10/12 12:35:55;;;;;;;13.50;4.57;;;;;;;;;;4997072;28;92472;-79
2022/10/12 12:38:23;;;;;;;18.95;5.13;;;;;;;;;;4994421;28;93973;-77
2022/10/12 12:40:53;;;;;;;11.32;4.65;;;;;;;;;;4997087;28;94122;-78
2022/10/12 12:43:29;;;;;;;12.57;5.20;;;;;;;;;;4996986;28;92468;-81
2022/10/12 12:46:04;;;;;;;22.48;6.20;;;;;;;;;;4999315;28;93820;-77
2022/10/12 12:48:45;;;;;;;14.45;6.70;;;;;;;;;;4993019;28;94778;-77
2022/10/12 12:51:20;;;;;;;16.50;6.45;;;;;;;;;;4996662;28;96493;-77
2022/10/12 12:53:49;;;;;;;13.90;6.10;;;;;;;;;;4993194;28;94442;-77
2022/10/12 12:56:34;;;;;;;11.02;5.80;;;;;;;;;;4992306;28;93853;-77
2022/10/12 12:59:19;;;;;;;33.83;7.00;;;;;;;;;;4993864;28;93868;-78
2022/10/12 13:02:04;;;;;;;14.32;6.35;;;;;;;;;;4995977;28;93518;-75
2022/10/12 13:04:47;;;;;;;19.48;7.30;;;;;;;;;;4994984;28;93246;-79
2022/10/12 13:07:32;;;;;;;14.73;5.93;;;;;;;;;;4995447;28;94151;-78
2022/10/12 13:10:06;;;;;;;12.70;6.22;;;;;;;;;;5008707;28;94000;-87
2022/10/12 13:12:51;;;;;;;16.15;6.07;;;;;;;;;;4997324;28;93377;-78
2022/10/12 13:15:30;;;;;;;20.45;7.20;;;;;;;;;;4991177;28;97281;-83
2022/10/12 13:18:19;;;;;;;15.00;6.07;;;;;;;;;;4995926;28;92458;-78
2022/10/12 13:21:13;;;;;;;13.13;6.38;;;;;;;;;;4992712;28;93456;-78
2022/10/12 13:23:48;;;;;;;24.05;7.03;;;;;;;;;;4992833;28;94185;-79
2022/10/12 13:26:26;;;;;;;18.85;8.50;;;;;;;;;;4995860;28;92514;-79
2022/10/12 13:28:53;;;;;;;17.10;7.93;;;;;;;;;;4994581;28;93949;-78
2022/10/12 13:31:24;;;;;;;13.80;7.90;;;;;;;;;;4992425;28;93366;-79
2022/10/12 13:34:00;;;;;;;14.80;8.07;;;;;;;;;;4979933;28;91774;-77
2022/10/12 13:36:31;;;;;;;11.77;8.10;;;;;;;;;;4980685;28;94378;-78
2022/10/12 13:38:58;;;;;;;14.77;8.32;;;;;;;;;;4998050;28;92497;-84
2022/10/12 13:41:29;;;;;;;22.00;9.43;;;;;;;;;;4994682;28;94886;-78
2022/10/12 13:43:58;;;;;;;14.95;8.35;;;;;;;;;;4996084;28;94324;-78
2022/10/12 13:46:36;;;;;;;20.58;10.43;;;;;;;;;;4996377;28;92587;-77
2022/10/12 13:49:10;;;;;;;17.08;9.52;;;;;;;;;;4994415;28;94025;-79
2022/10/12 13:51:36;;;;;;;18.60;9.30;;;;;;;;;;4996148;28;94173;-78
2022/10/12 13:54:13;;;;;;;20.67;10.85;;;;;;;;;;4996078;28;92490;-78
2022/10/12 13:56:40;;;;;;;26.20;10.65;;;;;;;;;;4997730;28;94158;-79
2022/10/12 13:59:12;;;;;;;19.05;10.25;;;;;;;;;;4994713;28;91823;-79
2022/10/12 14:01:51;;;;;;;23.58;10.52;;;;;;;;;;4985596;28;93039;-78
2022/10/12 14:04:18;;;;;;;18.35;10.68;;;;;;;;;;4994177;28;95764;-78
2022/10/12 14:07:10;;;;;;;15.73;11.02;;;;;;;;;;4992273;28;94890;-78
2022/10/12 14:09:40;;;;;;;23.40;11.48;;;;;;;;;;4992474;28;95444;-79
2022/10/12 14:12:08;;;;;;;23.23;11.32;;;;;;;;;;4994984;28;94952;-79
2022/10/12 14:14:35;;;;;;;21.92;11.20;;;;;;;;;;4995181;28;92463;-79
2022/10/12 14:17:02;;;;;;;24.58;11.85;;;;;;;;;;4993918;28;93897;-78
2022/10/12 14:19:41;;;;;;;19.48;10.52;;;;;;;;;;4998144;28;94260;-78
2022/10/12 14:22:08;;;;;;;21.00;12.52;;;;;;;;;;4994650;28;92476;-78
2022/10/12 14:24:35;;;;;;;23.40;11.25;;;;;;;;;;4994576;28;93331;-78
2022/10/12 14:27:03;;;;;;;28.05;13.10;;;;;;;;;;4994049;28;92964;-78
2022/10/12 14:29:40;;;;;;;22.95;13.10;;;;;;;;;;4995079;28;93958;-79
2022/10/12 14:32:28;;;;;;;20.08;12.73;;;;;;;;;;4992146;28;96719;-78
2022/10/12 14:35:19;;;;;;;18.98;12.00;;;;;;;;;;4994053;28;92370;-79
2022/10/12 14:37:46;;;;;;;21.45;12.38;;;;;;;;;;4993719;28;95075;-79
2022/10/12 14:40:25;;;;;;;22.20;11.70;;;;;;;;;;4997449;28;93425;-78
2022/10/12 14:43:02;;;;;;;23.27;12.88;;;;;;;;;;4994742;28;94292;-78